sensor_id;sensor_type;location;lat;lon;timestamp;pressure;altitude;pressure_sealevel;temperature;humidity
63204;BME280;49297;43.210;27.914;2024-02-14T00:00:12;100748.22;;;8.42;73.00
63204;BME280;49297;43.210;27.914;2024-02-14T00:02:57;100750.75;;;8.44;73.38
63204;BME280;49297;43.210;27.914;2024-02-14T00:05:23;100747.59;;;8.38;73.36
63204;BME280;49297;43.210;27.914;2024-02-14T00:07:49;100751.06;;;8.39;72.95
63204;BME280;49297;43.210;27.914;2024-02-14T00:10:14;100744.38;;;8.35;72.82
63204;BME280;49297;43.210;27.914;2024-02-14T00:15:26;100747.94;;;8.34;73.94
63204;BME280;49297;43.210;27.914;2024-02-14T00:17:52;100752.16;;;8.36;73.54
63204;BME280;49297;43.210;27.914;2024-02-14T00:20:18;100753.69;;;8.39;73.95
63204;BME280;49297;43.210;27.914;2024-02-14T00:22:45;100756.84;;;8.44;74.17
63204;BME280;49297;43.210;27.914;2024-02-14T00:25:10;100752.41;;;8.45;73.83
63204;BME280;49297;43.210;27.914;2024-02-14T00:27:36;100759.25;;;8.47;74.11
63204;BME280;49297;43.210;27.914;2024-02-14T00:30:02;100757.19;;;8.51;73.34
63204;BME280;49297;43.210;27.914;2024-02-14T00:32:28;100753.47;;;8.53;74.11
63204;BME280;49297;43.210;27.914;2024-02-14T00:34:54;100753.00;;;8.60;73.58
63204;BME280;49297;43.210;27.914;2024-02-14T00:37:20;100748.19;;;8.65;73.72
63204;BME280;49297;43.210;27.914;2024-02-14T00:39:45;100752.00;;;8.72;74.19
63204;BME280;49297;43.210;27.914;2024-02-14T00:42:14;100751.28;;;8.70;74.02
63204;BME280;49297;43.210;27.914;2024-02-14T00:44:39;100755.59;;;8.71;73.90
63204;BME280;49297;43.210;27.914;2024-02-14T00:47:05;100754.75;;;8.70;73.90
63204;BME280;49297;43.210;27.914;2024-02-14T00:49:33;100757.50;;;8.69;74.20
63204;BME280;49297;43.210;27.914;2024-02-14T00:51:59;100753.19;;;8.68;74.01
63204;BME280;49297;43.210;27.914;2024-02-14T00:54:24;100761.38;;;8.65;74.35
63204;BME280;49297;43.210;27.914;2024-02-14T00:56:50;100757.75;;;8.66;74.56
63204;BME280;49297;43.210;27.914;2024-02-14T00:59:15;100755.22;;;8.64;74.36
63204;BME280;49297;43.210;27.914;2024-02-14T01:01:42;100751.75;;;8.64;74.23
63204;BME280;49297;43.210;27.914;2024-02-14T01:04:08;100757.03;;;8.64;74.28
63204;BME280;49297;43.210;27.914;2024-02-14T01:06:33;100764.25;;;8.62;74.60
63204;BME280;49297;43.210;27.914;2024-02-14T01:08:59;100748.41;;;8.62;74.39
63204;BME280;49297;43.210;27.914;2024-02-14T01:11:24;100758.72;;;8.65;74.62
63204;BME280;49297;43.210;27.914;2024-02-14T01:13:50;100764.72;;;8.67;74.25
63204;BME280;49297;43.210;27.914;2024-02-14T01:16:17;100764.59;;;8.68;74.95
63204;BME280;49297;43.210;27.914;2024-02-14T01:18:42;100771.06;;;8.64;74.35
63204;BME280;49297;43.210;27.914;2024-02-14T01:21:08;100776.47;;;8.63;74.46
63204;BME280;49297;43.210;27.914;2024-02-14T01:23:33;100768.44;;;8.64;74.01
63204;BME280;49297;43.210;27.914;2024-02-14T01:25:59;100764.13;;;8.63;74.45
63204;BME280;49297;43.210;27.914;2024-02-14T01:28:25;100779.00;;;8.64;74.42
63204;BME280;49297;43.210;27.914;2024-02-14T01:30:51;100786.31;;;8.61;74.14
63204;BME280;49297;43.210;27.914;2024-02-14T01:33:16;100787.28;;;8.60;74.71
63204;BME280;49297;43.210;27.914;2024-02-14T01:35:42;100785.25;;;8.63;74.12
63204;BME280;49297;43.210;27.914;2024-02-14T01:38:08;100787.50;;;8.68;73.88
63204;BME280;49297;43.210;27.914;2024-02-14T01:40:33;100788.09;;;8.71;74.13
63204;BME280;49297;43.210;27.914;2024-02-14T01:42:59;100784.38;;;8.74;74.03
63204;BME280;49297;43.210;27.914;2024-02-14T01:45:26;100790.25;;;8.77;74.40
63204;BME280;49297;43.210;27.914;2024-02-14T01:47:53;100786.19;;;8.73;73.39
63204;BME280;49297;43.210;27.914;2024-02-14T01:50:18;100792.41;;;8.72;73.80
63204;BME280;49297;43.210;27.914;2024-02-14T01:52:53;100799.13;;;8.76;73.97
63204;BME280;49297;43.210;27.914;2024-02-14T01:55:19;100784.84;;;8.79;74.63
63204;BME280;49297;43.210;27.914;2024-02-14T01:57:47;100792.66;;;8.81;73.97
63204;BME280;49297;43.210;27.914;2024-02-14T02:00:12;100789.75;;;8.84;73.94
63204;BME280;49297;43.210;27.914;2024-02-14T02:02:43;100790.44;;;8.86;74.30
63204;BME280;49297;43.210;27.914;2024-02-14T02:05:17;100784.22;;;8.87;74.50
63204;BME280;49297;43.210;27.914;2024-02-14T02:07:44;100788.53;;;8.88;74.42
63204;BME280;49297;43.210;27.914;2024-02-14T02:10:12;100785.91;;;8.88;74.51
63204;BME280;49297;43.210;27.914;2024-02-14T02:12:37;100795.38;;;8.90;74.10
63204;BME280;49297;43.210;27.914;2024-02-14T02:15:05;100789.97;;;8.92;74.11
63204;BME280;49297;43.210;27.914;2024-02-14T02:17:31;100802.19;;;8.93;74.02
63204;BME280;49297;43.210;27.914;2024-02-14T02:19:58;100793.44;;;8.92;74.07
63204;BME280;49297;43.210;27.914;2024-02-14T02:22:24;100793.56;;;8.91;73.22
63204;BME280;49297;43.210;27.914;2024-02-14T02:24:50;100792.03;;;8.88;73.39
63204;BME280;49297;43.210;27.914;2024-02-14T02:27:16;100797.41;;;8.87;73.46
63204;BME280;49297;43.210;27.914;2024-02-14T02:29:41;100789.63;;;8.85;73.75
63204;BME280;49297;43.210;27.914;2024-02-14T02:32:07;100787.09;;;8.84;73.75
63204;BME280;49297;43.210;27.914;2024-02-14T02:34:35;100798.53;;;8.84;73.88
63204;BME280;49297;43.210;27.914;2024-02-14T02:37:04;100805.00;;;8.80;73.37
63204;BME280;49297;43.210;27.914;2024-02-14T02:39:33;100801.53;;;8.80;72.47
63204;BME280;49297;43.210;27.914;2024-02-14T02:41:59;100794.44;;;8.80;72.96
63204;BME280;49297;43.210;27.914;2024-02-14T02:44:24;100808.50;;;8.81;73.23
63204;BME280;49297;43.210;27.914;2024-02-14T02:46:50;100803.22;;;8.81;72.91
63204;BME280;49297;43.210;27.914;2024-02-14T02:49:15;100814.84;;;8.78;72.91
63204;BME280;49297;43.210;27.914;2024-02-14T02:51:41;100822.88;;;8.76;71.99
63204;BME280;49297;43.210;27.914;2024-02-14T02:54:07;100829.97;;;8.76;72.14
63204;BME280;49297;43.210;27.914;2024-02-14T02:56:33;100833.72;;;8.73;72.43
63204;BME280;49297;43.210;27.914;2024-02-14T02:58:59;100834.66;;;8.72;71.93
63204;BME280;49297;43.210;27.914;2024-02-14T03:01:24;100836.69;;;8.69;71.85
63204;BME280;49297;43.210;27.914;2024-02-14T03:03:53;100830.13;;;8.63;71.47
63204;BME280;49297;43.210;27.914;2024-02-14T03:06:19;100828.81;;;8.57;70.80
63204;BME280;49297;43.210;27.914;2024-02-14T03:08:45;100830.69;;;8.55;71.52
63204;BME280;49297;43.210;27.914;2024-02-14T03:11:15;100829.41;;;8.50;70.16
63204;BME280;49297;43.210;27.914;2024-02-14T03:13:40;100839.63;;;8.43;70.28
63204;BME280;49297;43.210;27.914;2024-02-14T03:16:06;100846.91;;;8.39;70.46
63204;BME280;49297;43.210;27.914;2024-02-14T03:18:32;100835.00;;;8.34;71.23
63204;BME280;49297;43.210;27.914;2024-02-14T03:20:58;100836.44;;;8.27;70.61
63204;BME280;49297;43.210;27.914;2024-02-14T03:23:23;100843.53;;;8.26;70.75
63204;BME280;49297;43.210;27.914;2024-02-14T03:25:49;100849.63;;;8.27;70.61
63204;BME280;49297;43.210;27.914;2024-02-14T03:28:16;100838.59;;;8.22;70.28
63204;BME280;49297;43.210;27.914;2024-02-14T03:30:42;100855.41;;;8.20;71.09
63204;BME280;49297;43.210;27.914;2024-02-14T03:33:07;100855.28;;;8.22;70.74
63204;BME280;49297;43.210;27.914;2024-02-14T03:35:33;100853.72;;;8.19;70.11
63204;BME280;49297;43.210;27.914;2024-02-14T03:38:02;100851.19;;;8.18;70.39
63204;BME280;49297;43.210;27.914;2024-02-14T03:40:28;100855.50;;;8.19;70.49
63204;BME280;49297;43.210;27.914;2024-02-14T03:42:58;100850.13;;;8.20;70.26
63204;BME280;49297;43.210;27.914;2024-02-14T03:45:24;100856.34;;;8.19;70.57
63204;BME280;49297;43.210;27.914;2024-02-14T03:47:49;100864.75;;;8.13;69.73
63204;BME280;49297;43.210;27.914;2024-02-14T03:50:15;100873.84;;;8.09;69.30
63204;BME280;49297;43.210;27.914;2024-02-14T03:52:41;100875.25;;;8.02;70.07
63204;BME280;49297;43.210;27.914;2024-02-14T03:55:07;100884.13;;;8.01;69.97
63204;BME280;49297;43.210;27.914;2024-02-14T03:57:34;100883.66;;;7.96;69.67
63204;BME280;49297;43.210;27.914;2024-02-14T04:00:03;100887.84;;;7.98;70.58
63204;BME280;49297;43.210;27.914;2024-02-14T04:02:32;100890.25;;;8.01;69.97
63204;BME280;49297;43.210;27.914;2024-02-14T04:04:58;100893.47;;;8.05;70.16
63204;BME280;49297;43.210;27.914;2024-02-14T04:07:23;100896.00;;;8.07;70.51
63204;BME280;49297;43.210;27.914;2024-02-14T04:09:49;100901.41;;;8.05;70.37
63204;BME280;49297;43.210;27.914;2024-02-14T04:12:15;100903.66;;;7.98;70.34
63204;BME280;49297;43.210;27.914;2024-02-14T04:14:40;100902.72;;;7.99;69.93
63204;BME280;49297;43.210;27.914;2024-02-14T04:17:06;100907.97;;;7.99;70.45
63204;BME280;49297;43.210;27.914;2024-02-14T04:19:34;100915.28;;;7.96;70.51
63204;BME280;49297;43.210;27.914;2024-02-14T04:21:59;100910.00;;;7.96;70.98
63204;BME280;49297;43.210;27.914;2024-02-14T04:24:25;100910.94;;;7.95;70.40
63204;BME280;49297;43.210;27.914;2024-02-14T04:26:52;100914.19;;;7.98;70.34
63204;BME280;49297;43.210;27.914;2024-02-14T04:29:20;100909.69;;;8.00;70.36
63204;BME280;49297;43.210;27.914;2024-02-14T04:31:46;100915.66;;;8.03;70.52
63204;BME280;49297;43.210;27.914;2024-02-14T04:34:11;100920.94;;;8.03;69.83
63204;BME280;49297;43.210;27.914;2024-02-14T04:36:39;100920.94;;;8.03;70.78
63204;BME280;49297;43.210;27.914;2024-02-14T04:39:05;100925.34;;;8.02;70.22
63204;BME280;49297;43.210;27.914;2024-02-14T04:41:31;100921.38;;;7.96;69.75
63204;BME280;49297;43.210;27.914;2024-02-14T04:43:56;100924.13;;;7.95;69.73
63204;BME280;49297;43.210;27.914;2024-02-14T04:46:22;100932.91;;;7.95;69.57
63204;BME280;49297;43.210;27.914;2024-02-14T04:48:47;100936.50;;;7.94;70.26
63204;BME280;49297;43.210;27.914;2024-02-14T04:51:13;100924.88;;;7.97;69.50
63204;BME280;49297;43.210;27.914;2024-02-14T04:53:39;100926.56;;;7.98;70.18
63204;BME280;49297;43.210;27.914;2024-02-14T04:56:04;100924.03;;;7.96;70.46
63204;BME280;49297;43.210;27.914;2024-02-14T04:58:30;100934.22;;;7.90;69.52
63204;BME280;49297;43.210;27.914;2024-02-14T05:00:55;100947.25;;;7.91;70.05
63204;BME280;49297;43.210;27.914;2024-02-14T05:03:21;100948.94;;;7.92;69.74
63204;BME280;49297;43.210;27.914;2024-02-14T05:05:49;100962.03;;;7.94;70.45
63204;BME280;49297;43.210;27.914;2024-02-14T05:08:15;100957.34;;;7.97;70.28
63204;BME280;49297;43.210;27.914;2024-02-14T05:10:41;100970.31;;;8.00;70.03
63204;BME280;49297;43.210;27.914;2024-02-14T05:13:06;100965.78;;;8.03;70.25
63204;BME280;49297;43.210;27.914;2024-02-14T05:15:32;100981.59;;;8.03;70.05
63204;BME280;49297;43.210;27.914;2024-02-14T05:18:00;100989.13;;;8.07;69.15
63204;BME280;49297;43.210;27.914;2024-02-14T05:20:26;100994.41;;;8.07;69.17
63204;BME280;49297;43.210;27.914;2024-02-14T05:22:52;100992.53;;;8.09;69.09
63204;BME280;49297;43.210;27.914;2024-02-14T05:25:18;100994.91;;;8.12;69.29
63204;BME280;49297;43.210;27.914;2024-02-14T05:27:43;101003.56;;;8.14;69.03
63204;BME280;49297;43.210;27.914;2024-02-14T05:30:16;100987.97;;;8.11;69.50
63204;BME280;49297;43.210;27.914;2024-02-14T05:32:42;100995.38;;;8.06;68.83
63204;BME280;49297;43.210;27.914;2024-02-14T05:35:08;100996.31;;;8.05;69.54
63204;BME280;49297;43.210;27.914;2024-02-14T05:37:34;101016.38;;;8.08;69.12
63204;BME280;49297;43.210;27.914;2024-02-14T05:40:02;101015.28;;;8.10;68.75
63204;BME280;49297;43.210;27.914;2024-02-14T05:42:28;101013.25;;;8.14;69.27
63204;BME280;49297;43.210;27.914;2024-02-14T05:44:53;101018.53;;;8.14;68.87
63204;BME280;49297;43.210;27.914;2024-02-14T05:47:19;101025.50;;;8.15;68.66
63204;BME280;49297;43.210;27.914;2024-02-14T05:49:44;101022.00;;;8.14;68.84
63204;BME280;49297;43.210;27.914;2024-02-14T05:52:11;101028.97;;;8.15;69.02
63204;BME280;49297;43.210;27.914;2024-02-14T05:54:36;101038.59;;;8.16;69.40
63204;BME280;49297;43.210;27.914;2024-02-14T05:59:32;101034.66;;;8.22;68.50
63204;BME280;49297;43.210;27.914;2024-02-14T06:01:58;101037.78;;;8.27;68.63
63204;BME280;49297;43.210;27.914;2024-02-14T06:04:23;101032.03;;;8.33;68.65
63204;BME280;49297;43.210;27.914;2024-02-14T06:06:49;101033.72;;;8.34;68.66
63204;BME280;49297;43.210;27.914;2024-02-14T06:09:14;101038.66;;;8.39;68.79
63204;BME280;49297;43.210;27.914;2024-02-14T06:11:44;101043.63;;;8.44;68.74
63204;BME280;49297;43.210;27.914;2024-02-14T06:14:10;101043.50;;;8.45;68.31
63204;BME280;49297;43.210;27.914;2024-02-14T06:16:35;101041.59;;;8.47;69.07
63204;BME280;49297;43.210;27.914;2024-02-14T06:19:01;101051.06;;;8.50;68.16
63204;BME280;49297;43.210;27.914;2024-02-14T06:21:31;101047.38;;;8.52;67.55
63204;BME280;49297;43.210;27.914;2024-02-14T06:23:58;101045.66;;;8.51;68.19
63204;BME280;49297;43.210;27.914;2024-02-14T06:26:24;101062.84;;;8.57;67.58
63204;BME280;49297;43.210;27.914;2024-02-14T06:28:53;101059.03;;;8.61;67.97
63204;BME280;49297;43.210;27.914;2024-02-14T06:31:21;101070.91;;;8.67;67.65
63204;BME280;49297;43.210;27.914;2024-02-14T06:33:47;101070.81;;;8.68;68.34
63204;BME280;49297;43.210;27.914;2024-02-14T06:36:13;101064.53;;;8.69;67.53
63204;BME280;49297;43.210;27.914;2024-02-14T06:38:38;101072.25;;;8.72;68.13
63204;BME280;49297;43.210;27.914;2024-02-14T06:41:05;101071.28;;;8.73;67.49
63204;BME280;49297;43.210;27.914;2024-02-14T06:43:31;101075.38;;;8.77;67.25
63204;BME280;49297;43.210;27.914;2024-02-14T06:45:56;101086.63;;;8.68;66.84
63204;BME280;49297;43.210;27.914;2024-02-14T06:48:22;101087.19;;;8.61;66.98
63204;BME280;49297;43.210;27.914;2024-02-14T06:50:49;101074.72;;;8.63;66.79
63204;BME280;49297;43.210;27.914;2024-02-14T06:53:15;101091.53;;;8.62;66.73
63204;BME280;49297;43.210;27.914;2024-02-14T06:55:40;101085.53;;;8.60;66.90
63204;BME280;49297;43.210;27.914;2024-02-14T06:58:06;101091.31;;;8.65;67.02
63204;BME280;49297;43.210;27.914;2024-02-14T07:00:32;101089.28;;;8.68;67.30
63204;BME280;49297;43.210;27.914;2024-02-14T07:02:58;101096.84;;;8.73;67.13
63204;BME280;49297;43.210;27.914;2024-02-14T07:05:23;101098.31;;;8.77;66.96
63204;BME280;49297;43.210;27.914;2024-02-14T07:07:49;101100.47;;;8.83;67.38
63204;BME280;49297;43.210;27.914;2024-02-14T07:10:15;101092.19;;;8.88;67.13
63204;BME280;49297;43.210;27.914;2024-02-14T07:12:41;101100.47;;;8.94;66.67
63204;BME280;49297;43.210;27.914;2024-02-14T07:15:06;101106.47;;;8.96;66.18
63204;BME280;49297;43.210;27.914;2024-02-14T07:17:33;101109.75;;;9.00;66.09
63204;BME280;49297;43.210;27.914;2024-02-14T07:19:59;101110.59;;;9.01;65.70
63204;BME280;49297;43.210;27.914;2024-02-14T07:22:24;101106.72;;;8.93;66.09
63204;BME280;49297;43.210;27.914;2024-02-14T07:24:50;101108.66;;;9.03;65.97
63204;BME280;49297;43.210;27.914;2024-02-14T07:27:16;101119.34;;;9.12;66.18
63204;BME280;49297;43.210;27.914;2024-02-14T07:29:42;101110.47;;;9.13;65.26
63204;BME280;49297;43.210;27.914;2024-02-14T07:34:40;101106.84;;;9.03;64.99
63204;BME280;49297;43.210;27.914;2024-02-14T07:37:06;101113.81;;;9.04;65.65
63204;BME280;49297;43.210;27.914;2024-02-14T07:39:32;101114.06;;;9.01;65.81
63204;BME280;49297;43.210;27.914;2024-02-14T07:42:04;101111.91;;;9.06;65.99
63204;BME280;49297;43.210;27.914;2024-02-14T07:44:29;101113.94;;;9.03;65.13
63204;BME280;49297;43.210;27.914;2024-02-14T07:46:55;101123.91;;;8.99;65.95
63204;BME280;49297;43.210;27.914;2024-02-14T07:49:20;101115.03;;;9.00;65.60
63204;BME280;49297;43.210;27.914;2024-02-14T07:51:49;101117.78;;;8.99;65.50
63204;BME280;49297;43.210;27.914;2024-02-14T07:54:17;101127.84;;;8.93;65.89
63204;BME280;49297;43.210;27.914;2024-02-14T08:00:01;101131.09;;;8.97;65.78
63204;BME280;49297;43.210;27.914;2024-02-14T08:05:22;101135.91;;;9.03;66.26
63204;BME280;49297;43.210;27.914;2024-02-14T08:07:48;101145.41;;;9.06;66.29
63204;BME280;49297;43.210;27.914;2024-02-14T08:10:15;101144.44;;;9.07;65.99
63204;BME280;49297;43.210;27.914;2024-02-14T08:12:56;101131.84;;;9.10;65.07
63204;BME280;49297;43.210;27.914;2024-02-14T08:15:21;101139.88;;;9.09;65.60
63204;BME280;49297;43.210;27.914;2024-02-14T08:17:47;101137.72;;;9.14;65.22
63204;BME280;49297;43.210;27.914;2024-02-14T08:20:13;101132.81;;;9.21;65.37
63204;BME280;49297;43.210;27.914;2024-02-14T08:22:38;101134.13;;;9.26;65.05
63204;BME280;49297;43.210;27.914;2024-02-14T08:25:05;101132.09;;;9.30;63.87
63204;BME280;49297;43.210;27.914;2024-02-14T08:27:30;101124.16;;;9.30;63.87
63204;BME280;49297;43.210;27.914;2024-02-14T08:29:56;101128.88;;;9.38;63.75
63204;BME280;49297;43.210;27.914;2024-02-14T08:32:22;101145.19;;;9.43;63.48
63204;BME280;49297;43.210;27.914;2024-02-14T08:35:01;101137.97;;;9.33;63.52
63204;BME280;49297;43.210;27.914;2024-02-14T08:37:26;101147.72;;;9.33;63.70
63204;BME280;49297;43.210;27.914;2024-02-14T08:39:53;101143.88;;;9.37;63.31
63204;BME280;49297;43.210;27.914;2024-02-14T08:42:25;101154.09;;;9.42;63.44
63204;BME280;49297;43.210;27.914;2024-02-14T08:44:50;101157.22;;;9.47;62.88
63204;BME280;49297;43.210;27.914;2024-02-14T08:47:17;101164.66;;;9.53;62.87
63204;BME280;49297;43.210;27.914;2024-02-14T08:49:45;101153.38;;;9.51;62.43
63204;BME280;49297;43.210;27.914;2024-02-14T08:52:12;101153.50;;;9.38;62.86
63204;BME280;49297;43.210;27.914;2024-02-14T08:54:38;101157.56;;;9.42;62.71
63204;BME280;49297;43.210;27.914;2024-02-14T08:57:04;101157.72;;;9.52;62.96
63204;BME280;49297;43.210;27.914;2024-02-14T08:59:31;101156.63;;;9.55;62.70
63204;BME280;49297;43.210;27.914;2024-02-14T09:01:56;101146.28;;;9.63;63.07
63204;BME280;49297;43.210;27.914;2024-02-14T09:04:22;101147.59;;;9.68;62.76
63204;BME280;49297;43.210;27.914;2024-02-14T09:06:47;101150.34;;;9.78;62.89
63204;BME280;49297;43.210;27.914;2024-02-14T09:09:13;101146.97;;;9.87;62.99
63204;BME280;49297;43.210;27.914;2024-02-14T09:11:39;101135.69;;;9.85;61.86
63204;BME280;49297;43.210;27.914;2024-02-14T09:14:06;101131.59;;;9.81;61.99
63204;BME280;49297;43.210;27.914;2024-02-14T09:16:34;101113.91;;;9.82;61.94
63204;BME280;49297;43.210;27.914;2024-02-14T09:19:01;101128.72;;;9.84;61.85
63204;BME280;49297;43.210;27.914;2024-02-14T09:21:27;101134.59;;;9.88;61.75
63204;BME280;49297;43.210;27.914;2024-02-14T09:23:55;101127.50;;;9.88;62.07
63204;BME280;49297;43.210;27.914;2024-02-14T09:26:22;101130.03;;;9.90;61.35
63204;BME280;49297;43.210;27.914;2024-02-14T09:28:48;101136.25;;;9.89;61.46
63204;BME280;49297;43.210;27.914;2024-02-14T09:31:18;101128.44;;;9.87;61.09
63204;BME280;49297;43.210;27.914;2024-02-14T09:33:46;101125.72;;;9.78;61.04
63204;BME280;49297;43.210;27.914;2024-02-14T09:36:27;101124.03;;;9.65;61.13
63204;BME280;49297;43.210;27.914;2024-02-14T09:39:00;101110.13;;;9.63;61.33
63204;BME280;49297;43.210;27.914;2024-02-14T09:41:39;101114.31;;;9.66;61.59
63204;BME280;49297;43.210;27.914;2024-02-14T09:44:05;101114.19;;;9.67;61.52
63204;BME280;49297;43.210;27.914;2024-02-14T09:46:32;101118.53;;;9.46;61.36
63204;BME280;49297;43.210;27.914;2024-02-14T09:49:03;101108.56;;;9.38;61.65
63204;BME280;49297;43.210;27.914;2024-02-14T09:51:33;101143.03;;;9.37;62.21
63204;BME280;49297;43.210;27.914;2024-02-14T09:53:59;101124.53;;;9.37;62.26
63204;BME280;49297;43.210;27.914;2024-02-14T09:56:28;101128.88;;;9.38;62.56
63204;BME280;49297;43.210;27.914;2024-02-14T09:58:54;101134.88;;;9.40;62.54
63204;BME280;49297;43.210;27.914;2024-02-14T10:01:23;101144.84;;;9.36;62.53
63204;BME280;49297;43.210;27.914;2024-02-14T10:03:55;101148.56;;;9.33;62.56
63204;BME280;49297;43.210;27.914;2024-02-14T10:06:22;101149.16;;;9.37;62.06
63204;BME280;49297;43.210;27.914;2024-02-14T10:08:50;101157.56;;;9.31;62.11
63204;BME280;49297;43.210;27.914;2024-02-14T10:11:18;101157.47;;;9.32;62.64
63204;BME280;49297;43.210;27.914;2024-02-14T10:13:48;101150.75;;;9.40;62.46
63204;BME280;49297;43.210;27.914;2024-02-14T10:16:15;101161.41;;;9.38;62.43
63204;BME280;49297;43.210;27.914;2024-02-14T10:18:42;101159.84;;;9.36;63.34
63204;BME280;49297;43.210;27.914;2024-02-14T10:21:13;101152.78;;;9.36;63.32
63204;BME280;49297;43.210;27.914;2024-02-14T10:23:43;101156.75;;;9.42;62.98
63204;BME280;49297;43.210;27.914;2024-02-14T10:26:11;101164.19;;;9.37;62.08
63204;BME280;49297;43.210;27.914;2024-02-14T10:28:40;101161.03;;;9.31;62.82
63204;BME280;49297;43.210;27.914;2024-02-14T10:31:07;101161.75;;;9.33;62.97
63204;BME280;49297;43.210;27.914;2024-02-14T10:33:34;101167.66;;;9.37;62.86
63204;BME280;49297;43.210;27.914;2024-02-14T10:38:32;101168.03;;;9.44;62.96
63204;BME280;49297;43.210;27.914;2024-02-14T10:41:04;101163.69;;;9.43;62.09
63204;BME280;49297;43.210;27.914;2024-02-14T10:43:31;101177.06;;;9.41;62.57
63204;BME280;49297;43.210;27.914;2024-02-14T10:45:59;101172.94;;;9.37;62.01
63204;BME280;49297;43.210;27.914;2024-02-14T10:48:27;101173.81;;;9.38;61.94
63204;BME280;49297;43.210;27.914;2024-02-14T10:50:57;101185.16;;;9.27;62.95
63204;BME280;49297;43.210;27.914;2024-02-14T10:53:24;101183.84;;;9.21;62.84
63204;BME280;49297;43.210;27.914;2024-02-14T10:55:51;101183.13;;;9.19;62.77
63204;BME280;49297;43.210;27.914;2024-02-14T10:58:17;101183.34;;;9.16;62.20
63204;BME280;49297;43.210;27.914;2024-02-14T11:00:43;101191.06;;;9.19;62.79
63204;BME280;49297;43.210;27.914;2024-02-14T11:03:09;101198.25;;;9.17;62.56
63204;BME280;49297;43.210;27.914;2024-02-14T11:05:45;101201.38;;;9.11;61.86
63204;BME280;49297;43.210;27.914;2024-02-14T11:08:20;101198.56;;;9.01;63.15
63204;BME280;49297;43.210;27.914;2024-02-14T11:10:55;101205.16;;;8.95;63.16
63204;BME280;49297;43.210;27.914;2024-02-14T11:15:56;101206.06;;;8.83;62.53
63204;BME280;49297;43.210;27.914;2024-02-14T11:18:26;101212.09;;;8.85;63.18
63204;BME280;49297;43.210;27.914;2024-02-14T11:20:52;101208.50;;;8.86;62.67
63204;BME280;49297;43.210;27.914;2024-02-14T11:23:21;101215.19;;;8.79;63.03
63204;BME280;49297;43.210;27.914;2024-02-14T11:25:49;101211.31;;;8.72;62.94
63204;BME280;49297;43.210;27.914;2024-02-14T11:28:17;101211.69;;;8.79;63.65
63204;BME280;49297;43.210;27.914;2024-02-14T11:30:46;101212.19;;;8.84;62.96
63204;BME280;49297;43.210;27.914;2024-02-14T11:35:41;101217.25;;;8.87;62.18
63204;BME280;49297;43.210;27.914;2024-02-14T11:38:08;101211.03;;;8.88;62.43
63204;BME280;49297;43.210;27.914;2024-02-14T11:40:38;101203.47;;;8.94;62.80
63204;BME280;49297;43.210;27.914;2024-02-14T11:43:14;101204.69;;;9.02;62.18
63204;BME280;49297;43.210;27.914;2024-02-14T11:45:40;101201.50;;;9.09;62.23
63204;BME280;49297;43.210;27.914;2024-02-14T11:48:08;101201.13;;;9.14;61.37
63204;BME280;49297;43.210;27.914;2024-02-14T11:50:34;101202.66;;;9.05;61.30
63204;BME280;49297;43.210;27.914;2024-02-14T11:53:00;101203.75;;;9.03;61.02
63204;BME280;49297;43.210;27.914;2024-02-14T11:55:29;101210.72;;;9.04;61.07
63204;BME280;49297;43.210;27.914;2024-02-14T11:57:55;101206.09;;;8.94;61.48
63204;BME280;49297;43.210;27.914;2024-02-14T12:00:23;101197.97;;;8.98;62.20
63204;BME280;49297;43.210;27.914;2024-02-14T12:02:50;101226.69;;;9.02;61.58
63204;BME280;49297;43.210;27.914;2024-02-14T12:05:19;101214.53;;;9.00;62.50
63204;BME280;49297;43.210;27.914;2024-02-14T12:07:47;101214.28;;;8.91;62.04
63204;BME280;49297;43.210;27.914;2024-02-14T12:10:14;101198.03;;;8.85;62.12
63204;BME280;49297;43.210;27.914;2024-02-14T12:12:44;101216.53;;;8.85;61.72
63204;BME280;49297;43.210;27.914;2024-02-14T12:15:10;101214.47;;;8.77;61.67
63204;BME280;49297;43.210;27.914;2024-02-14T12:17:36;101219.00;;;8.75;62.57
63204;BME280;49297;43.210;27.914;2024-02-14T12:20:10;101209.03;;;8.79;62.19
63204;BME280;49297;43.210;27.914;2024-02-14T12:22:37;101210.03;;;8.77;61.81
63204;BME280;49297;43.210;27.914;2024-02-14T12:25:05;101212.19;;;8.84;61.66
63204;BME280;49297;43.210;27.914;2024-02-14T12:27:34;101209.03;;;8.79;62.05
63204;BME280;49297;43.210;27.914;2024-02-14T12:30:02;101215.41;;;8.76;61.74
63204;BME280;49297;43.210;27.914;2024-02-14T12:32:28;101213.16;;;8.83;62.52
63204;BME280;49297;43.210;27.914;2024-02-14T12:35:00;101202.97;;;8.89;62.51
63204;BME280;49297;43.210;27.914;2024-02-14T12:37:25;101223.25;;;8.89;61.85
63204;BME280;49297;43.210;27.914;2024-02-14T12:39:51;101207.03;;;8.82;62.26
63204;BME280;49297;43.210;27.914;2024-02-14T12:42:18;101220.22;;;8.82;62.29
63204;BME280;49297;43.210;27.914;2024-02-14T12:44:54;101224.09;;;8.89;62.49
63204;BME280;49297;43.210;27.914;2024-02-14T12:47:19;101228.94;;;8.95;62.27
63204;BME280;49297;43.210;27.914;2024-02-14T12:49:47;101237.56;;;8.98;61.55
63204;BME280;49297;43.210;27.914;2024-02-14T12:52:14;101226.91;;;8.99;61.72
63204;BME280;49297;43.210;27.914;2024-02-14T12:54:39;101234.59;;;9.02;61.72
63204;BME280;49297;43.210;27.914;2024-02-14T12:57:05;101237.91;;;8.93;61.18
63204;BME280;49297;43.210;27.914;2024-02-14T12:59:32;101241.13;;;8.85;62.12
63204;BME280;49297;43.210;27.914;2024-02-14T13:01:57;101247.81;;;8.78;61.92
63204;BME280;49297;43.210;27.914;2024-02-14T13:04:23;101249.34;;;8.69;62.50
63204;BME280;49297;43.210;27.914;2024-02-14T13:06:48;101250.41;;;8.67;63.02
63204;BME280;49297;43.210;27.914;2024-02-14T13:09:14;101244.06;;;8.69;62.36